createdAt,value
2023-02-11T00:04:08.372Z,12.90
2023-02-11T00:09:12.290Z,18.90
2023-02-11T00:14:15.365Z,18.57
2023-02-11T00:19:20.409Z,11.23
2023-02-11T00:24:23.368Z,17.33
2023-02-11T00:29:26.539Z,11.30
2023-02-11T00:34:30.944Z,12.17
2023-02-11T00:39:34.057Z,13.23
2023-02-11T00:44:39.475Z,12.47
2023-02-11T00:49:43.740Z,14.03
2023-02-11T00:54:46.779Z,14.20
2023-02-11T00:59:50.662Z,12.67
2023-02-11T01:04:56.455Z,10.87
2023-02-11T01:09:59.595Z,12.53
2023-02-11T01:15:07.263Z,12.43
2023-02-11T01:20:16.926Z,13.73
2023-02-11T01:25:20.032Z,13.57
2023-02-11T01:30:23.064Z,17.93
2023-02-11T01:35:27.432Z,12.63
2023-02-11T01:40:30.361Z,8.80
2023-02-11T01:46:01.891Z,14.73
2023-02-11T01:51:11.910Z,9.87
2023-02-11T01:56:33.654Z,19.83
2023-02-11T02:01:41.878Z,13.83
2023-02-11T02:06:51.906Z,14.83
2023-02-11T02:11:55.344Z,17.63
2023-02-11T02:16:58.445Z,16.03
2023-02-11T02:22:29.528Z,13.73
2023-02-11T02:27:43.314Z,14.57
2023-02-11T02:33:20.550Z,12.57
2023-02-11T02:38:32.356Z,15.03
2023-02-11T02:43:37.952Z,17.13
2023-02-11T02:48:42.400Z,8.33
2023-02-11T02:53:59.556Z,14.93
2023-02-11T02:59:21.232Z,17.10
2023-02-11T03:04:32.140Z,10.83
2023-02-11T03:09:42.035Z,12.97
2023-02-11T03:14:46.573Z,12.67
2023-02-11T03:19:52.898Z,12.67
2023-02-11T03:24:57.473Z,12.27
2023-02-11T03:30:07.012Z,14.80
2023-02-11T03:35:16.638Z,14.33
2023-02-11T03:40:23.702Z,16.67
2023-02-11T03:45:28.678Z,12.43
2023-02-11T03:50:36.273Z,20.40
2023-02-11T03:55:41.124Z,15.07
2023-02-11T04:00:45.621Z,13.67
2023-02-11T04:05:50.434Z,17.77
2023-02-11T04:10:53.693Z,21.20
2023-02-11T04:15:56.840Z,22.87
2023-02-11T04:21:01.281Z,21.00
2023-02-11T04:26:04.619Z,13.37
2023-02-11T04:31:07.716Z,17.93
2023-02-11T04:36:12.271Z,17.93
2023-02-11T04:41:15.326Z,14.60
2023-02-11T04:46:18.348Z,22.77
2023-02-11T04:51:22.680Z,14.37
2023-02-11T04:56:25.804Z,19.20
2023-02-11T05:01:29.086Z,18.27
2023-02-11T05:06:33.549Z,18.37
2023-02-11T05:11:37.097Z,18.07
2023-02-11T05:16:40.201Z,15.90
2023-02-11T05:22:00.199Z,17.27
2023-02-11T05:27:04.929Z,23.60
2023-02-11T05:32:09.151Z,24.07
2023-02-11T05:37:13.845Z,21.10
2023-02-11T05:42:16.924Z,19.70
2023-02-11T05:47:19.919Z,23.73
2023-02-11T05:52:25.028Z,16.60
2023-02-11T05:57:28.063Z,19.47
2023-02-11T06:02:31.060Z,20.60
2023-02-11T06:07:35.492Z,16.17
2023-02-11T06:12:38.989Z,23.93
2023-02-11T06:17:42.258Z,25.30
2023-02-11T06:22:47.020Z,24.97
2023-02-11T06:27:50.311Z,22.30
2023-02-11T06:32:53.326Z,19.00
2023-02-11T06:37:57.844Z,23.23
2023-02-11T06:43:00.832Z,24.17
2023-02-11T06:48:04.002Z,20.03
2023-02-11T06:53:08.408Z,28.10
2023-02-11T06:58:11.609Z,30.63
2023-02-11T07:03:14.897Z,24.23
2023-02-11T07:08:19.879Z,23.83
2023-02-11T07:13:23.169Z,28.00
2023-02-11T07:18:26.308Z,30.73
2023-02-11T07:23:30.808Z,21.00
2023-02-11T07:28:36.275Z,24.93
2023-02-11T07:33:39.708Z,33.50
2023-02-11T07:38:44.593Z,30.80
2023-02-11T07:43:47.738Z,27.17
2023-02-11T07:48:50.899Z,24.23
2023-02-11T07:53:56.404Z,29.60
2023-02-11T07:59:03.289Z,30.40
2023-02-11T08:04:06.628Z,23.80
2023-02-11T08:09:15.920Z,24.40
2023-02-11T08:14:18.936Z,24.50
2023-02-11T08:19:21.943Z,20.43
2023-02-11T08:24:26.453Z,24.03
2023-02-11T08:29:29.806Z,26.43
2023-02-11T08:34:32.955Z,28.73
2023-02-11T08:39:37.408Z,29.10
2023-02-11T08:44:41.119Z,25.50
2023-02-11T08:49:44.423Z,29.77
2023-02-11T08:54:48.842Z,20.00
2023-02-11T08:59:51.844Z,26.73
2023-02-11T09:04:54.845Z,26.10
2023-02-11T09:09:59.267Z,25.70
2023-02-11T09:15:02.554Z,23.30
2023-02-11T09:20:06.698Z,32.60
2023-02-11T09:25:12.417Z,24.83
2023-02-11T09:30:15.768Z,25.27
2023-02-11T09:35:19.037Z,26.90
2023-02-11T09:40:24.138Z,29.50
2023-02-11T09:45:29.750Z,25.53
2023-02-11T09:50:36.045Z,24.83
2023-02-11T09:55:43.594Z,21.03
2023-02-11T10:00:53.757Z,21.90
2023-02-11T10:06:20.763Z,22.80
2023-02-11T10:11:32.777Z,23.30
2023-02-11T10:16:53.641Z,20.93
2023-02-11T10:22:06.098Z,21.83
2023-02-11T10:27:17.785Z,21.07
2023-02-11T10:32:30.853Z,25.40
2023-02-11T10:37:33.817Z,23.53
2023-02-11T10:42:38.382Z,25.77
2023-02-11T10:47:42.493Z,22.53
2023-02-11T10:52:45.632Z,22.00
2023-02-11T10:57:56.652Z,19.93
2023-02-11T11:03:01.962Z,17.93
2023-02-11T11:08:07.330Z,19.83
2023-02-11T11:13:34.436Z,20.07
2023-02-11T11:18:38.015Z,19.33
2023-02-11T11:23:41.686Z,19.93
2023-02-11T11:28:57.744Z,21.83
2023-02-11T11:34:05.660Z,23.17
2023-02-11T11:39:21.558Z,17.47
2023-02-11T11:44:30.131Z,21.33
2023-02-11T11:49:37.829Z,18.07
2023-02-11T11:54:44.613Z,16.20
2023-02-11T11:59:50.384Z,17.63
2023-02-11T12:05:04.022Z,20.40
2023-02-11T12:10:32.291Z,18.50
2023-02-11T12:15:45.526Z,16.53
2023-02-11T12:21:14.402Z,22.37
2023-02-11T12:26:20.660Z,15.73
2023-02-11T12:31:33.460Z,17.23
2023-02-11T12:36:54.467Z,19.27
2023-02-11T12:42:31.275Z,21.37
2023-02-11T12:47:46.766Z,19.37
2023-02-11T12:53:21.492Z,18.27
2023-02-11T12:58:42.892Z,16.10
2023-02-11T13:03:55.258Z,15.80
2023-02-11T13:09:02.676Z,20.83
2023-02-11T13:14:09.356Z,16.90
2023-02-11T13:19:24.196Z,17.23
2023-02-11T13:24:35.404Z,16.70
2023-02-11T13:30:04.447Z,15.73
2023-02-11T13:35:29.382Z,18.23
2023-02-11T13:40:35.479Z,15.43
2023-02-11T13:45:44.345Z,18.90
2023-02-11T13:50:51.994Z,17.20
2023-02-11T13:56:11.394Z,15.00
2023-02-11T14:01:43.622Z,15.67
2023-02-11T14:07:39.657Z,15.43
2023-02-11T14:12:42.660Z,16.83
2023-02-11T14:17:47.032Z,12.97
2023-02-11T14:22:53.127Z,15.07
2023-02-11T14:28:02.215Z,13.07
2023-02-11T14:33:47.622Z,14.87
2023-02-11T14:39:02.792Z,10.70
2023-02-11T14:44:13.938Z,10.83
2023-02-11T14:49:27.091Z,10.53
2023-02-11T14:54:31.088Z,8.73
2023-02-11T14:59:34.412Z,8.37
2023-02-11T15:04:40.475Z,8.00
2023-02-11T15:09:46.550Z,10.13
2023-02-11T15:14:55.247Z,9.17
2023-02-11T15:20:03.127Z,7.83
2023-02-11T15:25:12.152Z,8.93
2023-02-11T15:30:30.224Z,8.83
2023-02-11T15:35:36.860Z,7.80
2023-02-11T15:40:40.050Z,8.47
2023-02-11T15:45:46.054Z,10.37
2023-02-11T15:50:55.487Z,7.27
2023-02-11T15:56:09.771Z,9.43
2023-02-11T16:01:13.628Z,6.97
2023-02-11T16:06:20.528Z,8.03
2023-02-11T16:11:27.504Z,7.33
2023-02-11T16:16:34.722Z,7.47
2023-02-11T16:21:46.166Z,5.97
2023-02-11T16:26:51.536Z,9.80
2023-02-11T16:32:05.587Z,8.60
2023-02-11T16:37:10.084Z,12.83
2023-02-11T16:42:14.238Z,12.57
2023-02-11T16:47:24.000Z,14.57
2023-02-11T16:52:30.622Z,16.70
2023-02-11T16:57:33.829Z,20.40
2023-02-11T17:02:39.046Z,14.37
2023-02-11T17:07:43.501Z,11.60
2023-02-11T17:12:46.714Z,11.70
2023-02-11T17:17:49.838Z,14.80
2023-02-11T17:22:54.411Z,13.43
2023-02-11T17:27:57.500Z,16.03
2023-02-11T17:33:00.632Z,10.17
2023-02-11T17:38:05.165Z,11.17
2023-02-11T17:43:08.230Z,10.33
2023-02-11T17:48:11.697Z,13.43
2023-02-11T17:53:16.187Z,13.77
2023-02-11T17:58:19.477Z,15.53
2023-02-11T18:03:22.503Z,15.93
2023-02-11T18:08:27.018Z,12.00
2023-02-11T18:13:30.822Z,10.50
2023-02-11T18:18:33.872Z,10.40
2023-02-11T18:23:38.216Z,11.57
2023-02-11T18:28:45.207Z,9.87
2023-02-11T18:33:49.087Z,8.03
2023-02-11T18:38:54.427Z,11.53
2023-02-11T18:44:03.026Z,9.47
2023-02-11T18:49:06.323Z,9.83
2023-02-11T18:54:10.707Z,8.00
2023-02-11T18:59:13.997Z,9.37
2023-02-11T19:04:20.045Z,9.07
2023-02-11T19:09:24.551Z,12.67
2023-02-11T19:14:29.623Z,9.13
2023-02-11T19:19:34.750Z,10.70
2023-02-11T19:24:39.849Z,10.93
2023-02-11T19:29:43.064Z,12.37
2023-02-11T19:34:46.484Z,9.43
2023-02-11T19:39:50.899Z,10.47
2023-02-11T19:44:54.119Z,10.83
2023-02-11T19:49:57.148Z,11.90
2023-02-11T19:55:01.820Z,12.50
2023-02-11T20:00:05.746Z,9.70
2023-02-11T20:05:14.783Z,8.37
2023-02-11T20:10:19.703Z,9.67
2023-02-11T20:15:22.785Z,11.80
2023-02-11T20:20:25.844Z,10.70
2023-02-11T20:25:30.167Z,8.60
2023-02-11T20:30:33.282Z,10.57
2023-02-11T20:35:36.370Z,8.87
2023-02-11T20:40:40.891Z,8.83
2023-02-11T20:45:44.374Z,9.90
2023-02-11T20:50:48.378Z,12.47
2023-02-11T20:55:53.238Z,8.63
2023-02-11T21:00:56.412Z,8.30
2023-02-11T21:05:59.526Z,12.07
2023-02-11T21:11:04.125Z,12.73
2023-02-11T21:16:08.163Z,11.43
2023-02-11T21:21:11.580Z,10.30
2023-02-11T21:26:17.186Z,9.50
2023-02-11T21:31:22.871Z,9.40
2023-02-11T21:36:26.711Z,8.90
2023-02-11T21:41:31.365Z,9.97
2023-02-11T21:46:34.410Z,11.20
2023-02-11T21:51:37.609Z,12.30
2023-02-11T21:56:42.020Z,12.10
2023-02-11T22:01:46.444Z,9.87
2023-02-11T22:06:49.607Z,8.17
2023-02-11T22:11:54.006Z,8.90
2023-02-11T22:16:57.263Z,7.87
2023-02-11T22:22:00.496Z,9.03
2023-02-11T22:27:05.131Z,8.07
2023-02-11T22:32:08.304Z,7.57
2023-02-11T22:37:11.417Z,8.73
2023-02-11T22:42:15.931Z,7.33
2023-02-11T22:47:18.946Z,8.37
2023-02-11T22:52:22.468Z,7.87
2023-02-11T22:57:26.927Z,7.83
2023-02-11T23:02:30.277Z,8.27
2023-02-11T23:07:33.315Z,8.43
2023-02-11T23:12:37.905Z,8.87
2023-02-11T23:17:40.906Z,9.03
2023-02-11T23:22:44.016Z,8.47
2023-02-11T23:27:48.412Z,9.03
2023-02-11T23:32:51.983Z,9.57
2023-02-11T23:37:55.258Z,10.43
2023-02-11T23:42:59.747Z,8.67
2023-02-11T23:48:02.896Z,8.90
2023-02-11T23:53:05.943Z,8.53
2023-02-11T23:58:11.606Z,9.63
